createdAt,value
2023-01-08T00:01:31.381Z,10.10
2023-01-08T00:03:59.874Z,10.15
2023-01-08T00:06:29.097Z,10.22
2023-01-08T00:08:57.122Z,10.33
2023-01-08T00:11:25.230Z,10.40
2023-01-08T00:13:53.272Z,10.46
2023-01-08T00:16:21.281Z,10.54
2023-01-08T00:18:49.371Z,10.64
2023-01-08T00:21:17.491Z,10.75
2023-01-08T00:23:45.378Z,11.25
2023-01-08T00:26:14.238Z,12.06
2023-01-08T00:28:42.573Z,12.09
2023-01-08T00:31:13.388Z,10.89
2023-01-08T00:33:42.002Z,9.69
2023-01-08T00:36:16.943Z,9.12
2023-01-08T00:38:46.696Z,10.65
2023-01-08T00:41:16.421Z,12.22
2023-01-08T00:43:44.351Z,12.55
2023-01-08T00:46:12.294Z,11.43
2023-01-08T00:48:40.260Z,10.20
2023-01-08T00:51:09.534Z,9.73
2023-01-08T00:53:40.685Z,11.34
2023-01-08T00:56:10.797Z,12.82
2023-01-08T00:58:39.157Z,13.04
2023-01-08T01:01:15.338Z,11.79
2023-01-08T01:03:43.948Z,10.44
2023-01-08T01:06:14.277Z,9.50
2023-01-08T01:08:44.491Z,9.29
2023-01-08T01:11:26.836Z,11.05
2023-01-08T01:13:57.009Z,12.84
2023-01-08T01:16:26.312Z,13.21
2023-01-08T01:18:55.611Z,12.03
2023-01-08T01:21:30.948Z,10.77
2023-01-08T01:24:06.063Z,9.69
2023-01-08T01:26:34.877Z,9.15
2023-01-08T01:29:03.179Z,10.52
2023-01-08T01:31:32.413Z,12.29
2023-01-08T01:34:00.714Z,13.06
2023-01-08T01:36:28.641Z,11.96
2023-01-08T01:38:58.149Z,10.62
2023-01-08T01:41:45.781Z,9.59
2023-01-08T01:44:45.966Z,9.43
2023-01-08T01:47:26.075Z,11.60
2023-01-08T01:50:26.424Z,12.88
2023-01-08T01:52:56.871Z,12.87
2023-01-08T01:55:27.448Z,11.36
2023-01-08T01:58:14.722Z,10.06
2023-01-08T02:00:44.446Z,9.63
2023-01-08T02:03:15.182Z,11.46
2023-01-08T02:06:31.212Z,12.90
2023-01-08T02:09:23.496Z,12.83
2023-01-08T02:12:26.109Z,11.14
2023-01-08T02:15:48.263Z,9.70
2023-01-08T02:18:48.410Z,9.94
2023-01-08T02:22:02.975Z,12.07
2023-01-08T02:24:44.662Z,13.37
2023-01-08T02:27:14.563Z,13.44
2023-01-08T02:29:43.077Z,11.82
2023-01-08T02:32:11.816Z,10.36
2023-01-08T02:34:39.639Z,9.82
2023-01-08T02:37:10.188Z,11.26
2023-01-08T02:39:43.956Z,12.77
2023-01-08T02:42:20.823Z,13.30
2023-01-08T02:45:25.391Z,12.00
2023-01-08T02:48:05.462Z,10.34
2023-01-08T02:50:57.440Z,9.96
2023-01-08T02:53:34.214Z,11.77
2023-01-08T02:56:10.165Z,13.29
2023-01-08T02:58:40.581Z,13.62
2023-01-08T03:01:12.989Z,12.28
2023-01-08T03:03:47.107Z,10.89
2023-01-08T03:06:19.702Z,10.33
2023-01-08T03:08:52.839Z,11.89
2023-01-08T03:11:24.744Z,13.43
2023-01-08T03:14:20.337Z,13.92
2023-01-08T03:16:55.790Z,12.21
2023-01-08T03:19:33.154Z,10.74
2023-01-08T03:22:07.131Z,10.22
2023-01-08T03:24:38.424Z,11.84
2023-01-08T03:27:13.380Z,13.16
2023-01-08T03:29:41.677Z,13.10
2023-01-08T03:32:16.485Z,11.72
2023-01-08T03:34:48.472Z,10.32
2023-01-08T03:37:26.296Z,9.78
2023-01-08T03:40:25.931Z,11.19
2023-01-08T03:42:53.833Z,12.66
2023-01-08T03:45:24.346Z,13.43
2023-01-08T03:47:54.876Z,13.37
2023-01-08T03:50:27.373Z,11.99
2023-01-08T03:52:55.379Z,10.66
2023-01-08T03:55:23.258Z,10.10
2023-01-08T03:57:51.111Z,11.30
2023-01-08T04:00:19.349Z,12.70
2023-01-08T04:02:47.443Z,13.60
2023-01-08T04:05:15.632Z,13.44
2023-01-08T04:07:43.597Z,11.99
2023-01-08T04:10:11.706Z,10.48
2023-01-08T04:12:43.486Z,9.82
2023-01-08T04:15:11.815Z,11.11
2023-01-08T04:17:39.727Z,12.52
2023-01-08T04:20:09.579Z,13.29
2023-01-08T04:22:37.604Z,12.59
2023-01-08T04:25:05.923Z,11.03
2023-01-08T04:27:33.860Z,10.32
2023-01-08T04:30:01.717Z,11.61
2023-01-08T04:32:29.704Z,12.83
2023-01-08T04:34:57.550Z,13.06
2023-01-08T04:37:25.391Z,11.75
2023-01-08T04:39:53.370Z,10.38
2023-01-08T04:42:21.335Z,9.80
2023-01-08T04:44:49.168Z,11.12
2023-01-08T04:47:17.098Z,11.98
2023-01-08T04:49:44.967Z,12.23
2023-01-08T04:52:12.836Z,12.38
2023-01-08T04:54:40.638Z,12.20
2023-01-08T04:57:08.568Z,10.98
2023-01-08T04:59:36.435Z,9.75
2023-01-08T05:02:04.976Z,9.32
2023-01-08T05:04:33.100Z,10.65
2023-01-08T05:07:01.032Z,11.72
2023-01-08T05:09:28.974Z,12.38
2023-01-08T05:11:56.908Z,12.38
2023-01-08T05:14:24.833Z,11.21
2023-01-08T05:16:52.761Z,9.85
2023-01-08T05:19:20.588Z,9.42
2023-01-08T05:21:48.470Z,10.71
2023-01-08T05:24:16.601Z,11.91
2023-01-08T05:26:44.473Z,12.62
2023-01-08T05:29:12.471Z,12.63
2023-01-08T05:31:40.395Z,11.46
2023-01-08T05:34:08.331Z,10.19
2023-01-08T05:36:36.199Z,9.70
2023-01-08T05:39:04.592Z,11.23
2023-01-08T05:41:32.420Z,12.66
2023-01-08T05:44:00.917Z,12.99
2023-01-08T05:46:28.788Z,11.86
2023-01-08T05:48:57.948Z,10.44
2023-01-08T05:51:25.905Z,9.84
2023-01-08T05:53:53.892Z,10.86
2023-01-08T05:56:21.981Z,11.88
2023-01-08T05:58:49.933Z,12.27
2023-01-08T06:01:18.045Z,12.53
2023-01-08T06:03:46.027Z,12.67
2023-01-08T06:06:14.043Z,11.51
2023-01-08T06:08:41.943Z,10.16
2023-01-08T06:11:12.146Z,9.68
2023-01-08T06:13:44.046Z,11.09
2023-01-08T06:16:13.183Z,12.01
2023-01-08T06:18:41.095Z,12.27
2023-01-08T06:21:09.431Z,12.29
2023-01-08T06:23:37.305Z,12.44
2023-01-08T06:26:05.574Z,12.08
2023-01-08T06:28:33.583Z,10.79
2023-01-08T06:31:03.424Z,9.90
2023-01-08T06:33:32.696Z,10.58
2023-01-08T06:36:05.561Z,11.46
2023-01-08T06:38:35.637Z,12.03
2023-01-08T06:41:10.252Z,12.72
2023-01-08T06:43:39.450Z,12.73
2023-01-08T06:46:09.665Z,11.18
2023-01-08T06:48:38.323Z,9.79
2023-01-08T06:51:07.323Z,9.30
2023-01-08T06:53:35.154Z,10.52
2023-01-08T06:56:04.629Z,11.67
2023-01-08T06:58:32.647Z,12.33
2023-01-08T07:01:00.750Z,11.69
2023-01-08T07:03:28.934Z,10.29
2023-01-08T07:05:57.889Z,9.77
2023-01-08T07:08:25.765Z,11.01
2023-01-08T07:10:54.320Z,11.91
2023-01-08T07:13:24.031Z,12.41
2023-01-08T07:15:52.037Z,11.74
2023-01-08T07:18:20.038Z,10.23
2023-01-08T07:20:51.822Z,9.47
2023-01-08T07:23:19.601Z,10.42
2023-01-08T07:25:47.641Z,11.37
2023-01-08T07:28:16.086Z,11.84
2023-01-08T07:30:44.900Z,12.05
2023-01-08T07:33:12.843Z,10.90
2023-01-08T07:35:40.920Z,9.60
2023-01-08T07:38:08.884Z,9.05
2023-01-08T07:40:39.163Z,10.20
2023-01-08T07:43:07.443Z,11.38
2023-01-08T07:45:35.817Z,12.03
2023-01-08T07:48:05.052Z,12.12
2023-01-08T07:50:33.337Z,10.97
2023-01-08T07:53:02.612Z,9.68
2023-01-08T07:55:31.842Z,10.49
2023-01-08T07:57:59.798Z,11.35
2023-01-08T08:00:27.814Z,11.83
2023-01-08T08:02:55.920Z,11.90
2023-01-08T08:05:24.149Z,10.91
2023-01-08T08:07:52.061Z,9.63
2023-01-08T08:10:19.910Z,8.95
2023-01-08T08:12:47.850Z,9.64
2023-01-08T08:15:15.818Z,10.63
2023-01-08T08:17:48.754Z,11.29
2023-01-08T08:20:19.831Z,11.69
2023-01-08T08:22:47.666Z,11.79
2023-01-08T08:25:15.611Z,10.69
2023-01-08T08:27:44.976Z,9.49
2023-01-08T08:30:13.915Z,8.90
2023-01-08T08:32:41.847Z,9.88
2023-01-08T08:35:10.076Z,10.61
2023-01-08T08:37:38.165Z,10.70
2023-01-08T08:40:07.075Z,10.79
2023-01-08T08:42:34.985Z,10.87
2023-01-08T08:45:03.042Z,10.95
2023-01-08T08:47:30.932Z,10.80
2023-01-08T08:49:58.795Z,11.09
2023-01-08T08:52:26.665Z,11.31
2023-01-08T08:54:54.530Z,11.45
2023-01-08T08:57:25.923Z,11.36
2023-01-08T08:59:54.330Z,11.44
2023-01-08T09:02:22.428Z,11.63
2023-01-08T09:04:50.603Z,11.47
2023-01-08T09:07:19.155Z,10.36
2023-01-08T09:09:47.076Z,9.27
2023-01-08T09:12:14.897Z,8.95
2023-01-08T09:14:42.900Z,9.73
2023-01-08T09:17:10.907Z,10.58
2023-01-08T09:19:39.030Z,11.15
2023-01-08T09:22:06.911Z,11.41
2023-01-08T09:24:38.868Z,11.58
2023-01-08T09:27:07.733Z,11.30
2023-01-08T09:29:36.375Z,10.23
2023-01-08T09:32:07.383Z,9.36
2023-01-08T09:34:38.653Z,9.74
2023-01-08T09:37:07.246Z,10.13
2023-01-08T09:39:36.922Z,10.39
2023-01-08T09:42:06.956Z,10.43
2023-01-08T09:44:40.416Z,10.38
2023-01-08T09:47:26.917Z,10.47
2023-01-08T09:50:02.505Z,10.57
2023-01-08T09:52:32.131Z,10.66
2023-01-08T09:55:01.403Z,10.80
2023-01-08T09:57:29.958Z,10.78
2023-01-08T09:59:58.766Z,10.78
2023-01-08T10:02:29.055Z,10.86
2023-01-08T10:05:00.843Z,10.77
2023-01-08T10:07:30.723Z,10.77
2023-01-08T10:09:58.605Z,10.76
2023-01-08T10:12:33.004Z,10.64
2023-01-08T10:15:05.097Z,10.59
2023-01-08T10:17:47.189Z,10.57
2023-01-08T10:20:22.538Z,10.58
2023-01-08T10:22:54.409Z,10.43
2023-01-08T10:25:26.479Z,10.56
2023-01-08T10:27:59.953Z,10.59
2023-01-08T10:30:30.736Z,10.62
2023-01-08T10:33:20.347Z,10.65
2023-01-08T10:36:00.710Z,10.50
2023-01-08T10:38:34.455Z,10.42
2023-01-08T10:41:07.206Z,10.34
2023-01-08T10:44:01.605Z,10.36
2023-01-08T10:46:54.823Z,10.37
2023-01-08T10:49:42.120Z,10.55
2023-01-08T10:52:33.278Z,10.75
2023-01-08T10:55:23.417Z,10.70
2023-01-08T10:58:00.129Z,10.84
2023-01-08T11:00:35.728Z,10.93
2023-01-08T11:03:18.932Z,10.95
2023-01-08T11:05:47.527Z,10.78
2023-01-08T11:08:22.776Z,10.81
2023-01-08T11:10:57.426Z,10.80
2023-01-08T11:13:27.360Z,10.98
2023-01-08T11:16:10.802Z,10.92
2023-01-08T11:18:51.018Z,10.73
2023-01-08T11:21:25.130Z,10.61
2023-01-08T11:24:18.716Z,10.67
2023-01-08T11:26:57.348Z,10.54
2023-01-08T11:29:46.535Z,10.57
2023-01-08T11:32:42.237Z,10.57
2023-01-08T11:35:36.477Z,10.75
2023-01-08T11:38:08.314Z,10.88
2023-01-08T11:41:03.838Z,10.90
2023-01-08T11:44:38.729Z,10.90
2023-01-08T11:47:44.672Z,10.99
2023-01-08T11:51:24.060Z,10.57
2023-01-08T11:54:48.495Z,9.37
2023-01-08T11:57:47.661Z,10.05
2023-01-08T12:00:46.215Z,10.53
2023-01-08T12:03:26.370Z,10.91
2023-01-08T12:06:23.321Z,11.07
2023-01-08T12:09:04.486Z,10.96
2023-01-08T12:11:54.675Z,10.96
2023-01-08T12:14:56.095Z,11.04
2023-01-08T12:17:58.462Z,11.05
2023-01-08T12:20:32.357Z,10.76
2023-01-08T12:23:45.028Z,10.64
2023-01-08T12:26:21.720Z,10.67
2023-01-08T12:29:20.253Z,10.72
2023-01-08T12:32:13.075Z,10.58
2023-01-08T12:34:53.640Z,10.51
2023-01-08T12:37:44.504Z,10.57
2023-01-08T12:40:20.620Z,10.66
2023-01-08T12:42:59.896Z,10.80
2023-01-08T12:45:40.725Z,10.79
2023-01-08T12:48:16.003Z,10.82
2023-01-08T12:51:08.492Z,10.76
2023-01-08T12:54:07.771Z,10.66
2023-01-08T12:57:07.361Z,10.48
2023-01-08T13:00:17.094Z,10.48
2023-01-08T13:02:47.726Z,10.50
2023-01-08T13:05:18.757Z,10.53
2023-01-08T13:07:52.718Z,10.58
2023-01-08T13:10:40.234Z,10.60
2023-01-08T13:13:33.189Z,10.48
2023-01-08T13:16:11.324Z,10.60
2023-01-08T13:18:40.100Z,10.59
2023-01-08T13:21:12.849Z,10.47
2023-01-08T13:23:40.776Z,10.53
2023-01-08T13:26:08.748Z,10.72
2023-01-08T13:28:46.222Z,10.88
2023-01-08T13:31:20.099Z,11.09
2023-01-08T13:33:52.796Z,10.96
2023-01-08T13:36:28.583Z,10.73
2023-01-08T13:39:11.881Z,10.56
2023-01-08T13:41:57.217Z,10.40
2023-01-08T13:44:42.535Z,10.41
2023-01-08T13:47:43.295Z,10.49
2023-01-08T13:50:24.303Z,10.36
2023-01-08T13:53:05.804Z,10.45
2023-01-08T13:55:40.342Z,10.61
2023-01-08T13:58:53.235Z,10.64
2023-01-08T14:01:23.738Z,10.52
2023-01-08T14:03:51.821Z,10.53
2023-01-08T14:06:34.984Z,10.64
2023-01-08T14:09:05.567Z,10.70
2023-01-08T14:11:45.409Z,10.77
2023-01-08T14:14:20.404Z,10.87
2023-01-08T14:16:52.406Z,10.77
2023-01-08T14:19:24.626Z,10.88
2023-01-08T14:21:57.781Z,11.00
2023-01-08T14:24:26.776Z,11.18
2023-01-08T14:27:00.589Z,11.29
2023-01-08T14:29:30.966Z,11.31
2023-01-08T14:32:01.314Z,11.27
2023-01-08T14:34:32.379Z,11.16
2023-01-08T14:37:00.264Z,11.09
2023-01-08T14:39:38.597Z,11.02
2023-01-08T14:42:31.885Z,11.01
2023-01-08T14:45:23.076Z,10.89
2023-01-08T14:47:56.728Z,10.79
2023-01-08T14:50:33.044Z,10.87
2023-01-08T14:53:08.066Z,11.05
2023-01-08T14:55:44.747Z,11.13
2023-01-08T14:58:20.406Z,11.05
2023-01-08T15:00:56.571Z,10.86
2023-01-08T15:03:46.993Z,10.85
2023-01-08T15:06:32.942Z,10.98
2023-01-08T15:09:01.140Z,11.01
2023-01-08T15:11:32.301Z,11.04
2023-01-08T15:14:00.585Z,10.98
2023-01-08T15:16:56.458Z,10.99
2023-01-08T15:19:28.631Z,10.91
2023-01-08T15:22:00.414Z,10.99
2023-01-08T15:24:36.656Z,11.05
2023-01-08T15:27:12.066Z,11.03
2023-01-08T15:29:52.686Z,11.24
2023-01-08T15:32:27.457Z,11.37
2023-01-08T15:34:55.496Z,11.57
2023-01-08T15:37:23.458Z,11.82
2023-01-08T15:39:51.533Z,11.96
2023-01-08T15:42:46.280Z,12.03
2023-01-08T15:45:29.654Z,12.12
2023-01-08T15:47:58.550Z,12.00
2023-01-08T15:50:28.975Z,10.90
2023-01-08T15:52:57.626Z,9.80
2023-01-08T15:55:25.559Z,9.96
2023-01-08T15:57:56.009Z,10.59
2023-01-08T16:00:24.887Z,10.85
2023-01-08T16:02:55.518Z,11.05
2023-01-08T16:05:24.512Z,11.00
2023-01-08T16:07:52.857Z,10.95
2023-01-08T16:10:21.027Z,10.94
2023-01-08T16:12:48.963Z,10.98
2023-01-08T16:15:17.437Z,11.37
2023-01-08T16:17:45.762Z,11.23
2023-01-08T16:20:14.803Z,11.16
2023-01-08T16:22:43.021Z,11.02
2023-01-08T16:25:11.719Z,11.25
2023-01-08T16:27:41.279Z,11.21
2023-01-08T16:30:17.447Z,11.08
2023-01-08T16:32:46.950Z,11.08
2023-01-08T16:35:14.962Z,10.96
2023-01-08T16:37:43.036Z,10.94
2023-01-08T16:40:12.174Z,10.95
2023-01-08T16:42:40.284Z,10.98
2023-01-08T16:45:11.247Z,10.97
2023-01-08T16:47:40.160Z,10.94
2023-01-08T16:50:10.735Z,10.99
2023-01-08T16:52:39.135Z,11.00
2023-01-08T16:55:07.802Z,10.84
2023-01-08T16:57:35.961Z,10.79
2023-01-08T17:00:12.206Z,10.80
2023-01-08T17:02:40.546Z,10.81
2023-01-08T17:05:09.126Z,10.84
2023-01-08T17:07:37.210Z,11.01
2023-01-08T17:10:05.971Z,11.06
2023-01-08T17:12:33.928Z,10.92
2023-01-08T17:15:02.316Z,10.85
2023-01-08T17:17:30.299Z,10.90
2023-01-08T17:19:58.187Z,10.89
2023-01-08T17:22:26.065Z,11.05
2023-01-08T17:24:53.989Z,10.99
2023-01-08T17:27:22.048Z,10.90
2023-01-08T17:29:49.839Z,10.81
2023-01-08T17:32:17.727Z,10.87
2023-01-08T17:34:45.596Z,10.90
2023-01-08T17:37:13.479Z,10.79
2023-01-08T17:39:41.333Z,10.86
2023-01-08T17:42:28.339Z,11.03
2023-01-08T17:45:03.082Z,11.25
2023-01-08T17:47:32.100Z,11.54
2023-01-08T17:50:02.283Z,11.68
2023-01-08T17:52:30.318Z,11.49
2023-01-08T17:54:58.267Z,11.44
2023-01-08T17:57:26.665Z,11.50
2023-01-08T17:59:54.538Z,11.43
2023-01-08T18:02:22.770Z,11.34
2023-01-08T18:04:53.372Z,11.50
2023-01-08T18:07:21.360Z,11.65
2023-01-08T18:09:52.799Z,11.84
2023-01-08T18:12:20.673Z,12.02
2023-01-08T18:14:48.665Z,11.91
2023-01-08T18:17:16.634Z,10.86
2023-01-08T18:19:44.528Z,10.07
2023-01-08T18:22:12.562Z,10.33
2023-01-08T18:24:40.592Z,10.40
2023-01-08T18:27:08.902Z,10.59
2023-01-08T18:29:37.032Z,10.71
2023-01-08T18:32:05.286Z,10.70
2023-01-08T18:34:33.457Z,10.75
2023-01-08T18:37:01.360Z,10.77
2023-01-08T18:39:31.669Z,10.82
2023-01-08T18:42:18.803Z,10.92
2023-01-08T18:44:46.765Z,10.72
2023-01-08T18:47:15.803Z,10.72
2023-01-08T18:49:43.833Z,10.82
2023-01-08T18:52:14.093Z,10.79
2023-01-08T18:54:42.037Z,10.68
2023-01-08T18:57:10.013Z,10.58
2023-01-08T18:59:38.279Z,10.66
2023-01-08T19:02:06.357Z,10.69
2023-01-08T19:04:34.440Z,10.66
2023-01-08T19:07:02.436Z,10.67
2023-01-08T19:09:30.499Z,10.74
2023-01-08T19:11:58.477Z,10.79
2023-01-08T19:14:26.471Z,10.88
2023-01-08T19:16:55.485Z,10.88
2023-01-08T19:19:24.962Z,10.83
2023-01-08T19:21:54.888Z,10.80
2023-01-08T19:24:24.116Z,10.69
2023-01-08T19:26:52.352Z,10.61
2023-01-08T19:29:21.492Z,10.77
2023-01-08T19:31:55.792Z,10.85
2023-01-08T19:34:25.363Z,10.79
2023-01-08T19:36:54.410Z,10.76
2023-01-08T19:39:23.086Z,10.63
2023-01-08T19:42:12.243Z,10.57
2023-01-08T19:44:44.167Z,10.60
2023-01-08T19:47:13.726Z,10.55
2023-01-08T19:49:47.839Z,10.73
2023-01-08T19:52:17.853Z,10.84
2023-01-08T19:54:48.239Z,10.90
2023-01-08T19:57:18.074Z,11.04
2023-01-08T19:59:47.468Z,11.11
2023-01-08T20:02:17.153Z,11.15
2023-01-08T20:04:45.284Z,11.17
2023-01-08T20:07:14.642Z,11.03
2023-01-08T20:09:43.605Z,10.95
2023-01-08T20:12:11.754Z,10.93
2023-01-08T20:14:40.273Z,10.91
2023-01-08T20:17:08.906Z,10.81
2023-01-08T20:19:37.212Z,10.77
2023-01-08T20:22:05.370Z,10.73
2023-01-08T20:24:35.160Z,10.59
2023-01-08T20:27:03.179Z,10.60
2023-01-08T20:29:32.857Z,10.78
2023-01-08T20:32:01.595Z,10.96
2023-01-08T20:34:29.484Z,10.99
2023-01-08T20:36:57.806Z,11.00
2023-01-08T20:39:26.364Z,11.01
2023-01-08T20:42:03.938Z,11.06
2023-01-08T20:44:33.867Z,11.09
2023-01-08T20:47:02.501Z,11.12
2023-01-08T20:49:30.882Z,11.00
2023-01-08T20:52:00.362Z,10.91
2023-01-08T20:54:30.372Z,10.92
2023-01-08T20:57:04.047Z,11.01
2023-01-08T20:59:32.160Z,11.06
2023-01-08T21:02:02.055Z,11.12
2023-01-08T21:04:30.120Z,11.00
2023-01-08T21:06:58.537Z,10.95
2023-01-08T21:09:26.810Z,11.03
2023-01-08T21:11:57.879Z,11.06
2023-01-08T21:14:28.958Z,11.03
2023-01-08T21:16:59.858Z,11.00
2023-01-08T21:19:27.775Z,11.02
2023-01-08T21:21:55.674Z,11.11
2023-01-08T21:24:23.574Z,11.20
2023-01-08T21:26:51.399Z,11.23
2023-01-08T21:29:21.044Z,11.31
2023-01-08T21:31:49.317Z,11.31
2023-01-08T21:34:17.250Z,11.11
2023-01-08T21:36:45.369Z,11.07
2023-01-08T21:39:13.503Z,11.13
2023-01-08T21:42:00.139Z,11.23
2023-01-08T21:44:48.060Z,11.14
2023-01-08T21:47:18.564Z,11.20
2023-01-08T21:49:46.967Z,11.29
2023-01-08T21:52:33.487Z,11.21
2023-01-08T21:55:02.282Z,11.22
2023-01-08T21:57:30.349Z,11.14
2023-01-08T21:59:58.321Z,11.14
2023-01-08T22:02:26.353Z,11.13
2023-01-08T22:04:56.361Z,11.12
2023-01-08T22:07:26.164Z,11.17
2023-01-08T22:09:54.709Z,11.22
2023-01-08T22:12:24.406Z,11.21
2023-01-08T22:14:56.899Z,11.03
2023-01-08T22:17:29.325Z,10.88
2023-01-08T22:19:58.140Z,10.85
2023-01-08T22:22:25.954Z,10.74
2023-01-08T22:24:54.950Z,10.72
2023-01-08T22:27:25.426Z,10.64
2023-01-08T22:29:54.632Z,10.59
2023-01-08T22:32:22.884Z,10.68
2023-01-08T22:34:58.406Z,10.73
2023-01-08T22:37:26.299Z,10.81
2023-01-08T22:39:54.295Z,10.77
2023-01-08T22:42:23.905Z,10.80
2023-01-08T22:44:51.929Z,10.92
2023-01-08T22:47:19.795Z,10.98
2023-01-08T22:49:50.068Z,11.03
2023-01-08T22:52:17.977Z,11.02
2023-01-08T22:54:45.842Z,11.07
2023-01-08T22:57:13.709Z,11.02
2023-01-08T22:59:41.579Z,10.95
2023-01-08T23:02:09.441Z,10.88
2023-01-08T23:04:37.339Z,10.84
2023-01-08T23:07:05.256Z,10.80
2023-01-08T23:09:33.054Z,10.83
2023-01-08T23:12:00.929Z,10.72
2023-01-08T23:14:28.836Z,10.73
2023-01-08T23:16:56.657Z,10.84
2023-01-08T23:19:24.528Z,10.91
2023-01-08T23:21:52.536Z,10.79
2023-01-08T23:24:20.348Z,10.71
2023-01-08T23:26:48.215Z,10.64
2023-01-08T23:29:16.061Z,10.58
2023-01-08T23:31:44.386Z,10.58
2023-01-08T23:34:12.329Z,10.61
2023-01-08T23:36:41.041Z,10.62
2023-01-08T23:39:10.482Z,10.67
2023-01-08T23:41:38.941Z,10.67
2023-01-08T23:44:12.291Z,10.51
2023-01-08T23:46:40.315Z,10.41
2023-01-08T23:49:08.746Z,10.49
2023-01-08T23:51:37.836Z,10.60
2023-01-08T23:54:05.792Z,10.69
2023-01-08T23:56:33.859Z,10.67
2023-01-08T23:59:02.238Z,10.70
